createdAt,value
2018-07-11T00:01:07.886Z,99992.10
2018-07-11T00:03:47.865Z,99989.36
2018-07-11T00:06:16.763Z,99989.98
2018-07-11T00:08:44.458Z,99986.84
2018-07-11T00:11:12.499Z,99990.89
2018-07-11T00:13:41.874Z,99993.66
2018-07-11T00:16:09.773Z,99985.43
2018-07-11T00:18:37.599Z,99987.74
2018-07-11T00:21:05.452Z,99986.13
2018-07-11T00:23:33.265Z,99981.66
2018-07-11T00:26:01.211Z,99981.98
2018-07-11T00:28:28.914Z,99981.78
2018-07-11T00:30:57.865Z,99981.75
2018-07-11T00:33:25.703Z,99980.85
2018-07-11T00:35:53.465Z,99977.91
2018-07-11T00:38:21.846Z,99976.77
2018-07-11T00:40:50.271Z,99972.54
2018-07-11T00:43:18.183Z,99963.50
2018-07-11T00:45:46.141Z,99969.27
2018-07-11T00:48:14.854Z,99967.98
2018-07-11T00:50:42.742Z,99963.55
2018-07-11T00:53:10.970Z,99961.20
2018-07-11T00:55:38.762Z,99966.61
2018-07-11T00:58:19.248Z,99966.23
2018-07-11T01:01:05.368Z,99976.23
2018-07-11T01:03:35.166Z,99968.52
2018-07-11T01:06:03.072Z,99968.75
2018-07-11T01:08:34.082Z,99971.13
2018-07-11T01:11:06.531Z,99966.80
2018-07-11T01:13:34.454Z,99973.26
2018-07-11T01:16:02.309Z,99972.58
2018-07-11T01:18:30.429Z,99976.38
2018-07-11T01:20:58.083Z,99973.89
2018-07-11T01:23:25.758Z,99970.95
2018-07-11T01:25:53.870Z,99974.12
2018-07-11T01:28:21.573Z,99967.17
2018-07-11T01:30:49.314Z,99978.72
2018-07-11T01:33:16.969Z,99969.39
2018-07-11T01:35:44.614Z,99966.84
2018-07-11T01:38:12.279Z,99958.31
2018-07-11T01:40:39.926Z,99964.91
2018-07-11T01:43:07.937Z,99957.20
2018-07-11T01:45:35.563Z,99950.80
2018-07-11T01:48:03.294Z,99950.17
2018-07-11T01:50:31.197Z,99950.90
2018-07-11T01:52:59.523Z,99950.44
2018-07-11T01:55:27.986Z,99948.55
2018-07-11T01:57:57.070Z,99944.50
2018-07-11T02:00:25.328Z,99952.01
2018-07-11T02:02:53.434Z,99948.47
2018-07-11T02:05:21.122Z,99949.45
2018-07-11T02:07:48.941Z,99946.94
2018-07-11T02:10:34.857Z,99955.55
2018-07-11T02:13:02.528Z,99954.53
2018-07-11T02:15:30.280Z,99949.81
2018-07-11T02:17:59.024Z,99955.97
2018-07-11T02:20:26.691Z,99957.72
2018-07-11T02:22:54.403Z,99949.30
2018-07-11T02:25:22.375Z,99956.63
2018-07-11T02:27:50.518Z,99959.59
2018-07-11T02:30:18.177Z,99961.84
2018-07-11T02:32:45.924Z,99958.22
2018-07-11T02:35:13.546Z,99956.99
2018-07-11T02:37:41.186Z,99959.48
2018-07-11T02:40:08.870Z,99955.59
2018-07-11T02:42:36.552Z,99958.46
2018-07-11T02:45:04.330Z,99955.62
2018-07-11T02:47:37.835Z,99959.25
2018-07-11T02:50:05.492Z,99952.89
2018-07-11T02:52:33.190Z,99950.55
2018-07-11T02:55:00.894Z,99954.80
2018-07-11T02:57:28.546Z,99960.34
2018-07-11T02:59:56.310Z,99959.78
2018-07-11T03:02:24.005Z,99956.94
2018-07-11T03:04:51.706Z,99954.09
2018-07-11T03:07:19.370Z,99964.34
2018-07-11T03:09:47.290Z,99960.44
2018-07-11T03:12:14.998Z,99962.91
2018-07-11T03:14:46.137Z,99967.59
2018-07-11T03:17:13.802Z,99966.93
2018-07-11T03:19:41.561Z,99966.45
2018-07-11T03:22:09.225Z,99963.96
2018-07-11T03:24:36.894Z,99961.12
2018-07-11T03:27:04.899Z,99969.76
2018-07-11T03:29:33.139Z,99973.89
2018-07-11T03:32:00.750Z,99973.91
2018-07-11T03:34:28.708Z,99974.03
2018-07-11T03:36:56.465Z,99973.73
2018-07-11T03:39:24.094Z,99975.14
2018-07-11T03:41:51.825Z,99979.41
2018-07-11T03:44:19.556Z,99979.41
2018-07-11T03:46:47.233Z,99978.63
2018-07-11T03:49:14.965Z,99971.52
2018-07-11T03:51:42.952Z,99978.42
2018-07-11T03:54:10.601Z,99973.77
2018-07-11T03:56:57.599Z,99978.13
2018-07-11T03:59:25.229Z,99976.20
2018-07-11T04:01:52.997Z,99978.72
2018-07-11T04:04:20.730Z,99972.03
2018-07-11T04:06:48.394Z,99978.63
2018-07-11T04:09:16.245Z,99971.52
2018-07-11T04:11:44.829Z,99968.88
2018-07-11T04:14:12.549Z,99975.27
2018-07-11T04:16:40.338Z,99974.58
2018-07-11T04:19:08.037Z,99972.23
2018-07-11T04:21:35.759Z,99970.70
2018-07-11T04:24:03.826Z,99977.91
2018-07-11T04:26:31.497Z,99981.66
2018-07-11T04:28:59.247Z,99981.27
2018-07-11T04:31:26.949Z,99979.23
2018-07-11T04:33:54.588Z,99976.70
2018-07-11T04:36:22.262Z,99979.14
2018-07-11T04:38:50.034Z,99978.50
2018-07-11T04:41:17.738Z,99977.30
2018-07-11T04:43:45.410Z,99977.91
2018-07-11T04:46:13.163Z,99979.44
2018-07-11T04:48:41.646Z,99980.03
2018-07-11T04:51:09.455Z,99982.80
2018-07-11T04:53:37.210Z,99983.09
2018-07-11T04:56:05.326Z,99988.38
2018-07-11T04:58:33.277Z,99990.89
2018-07-11T05:01:00.998Z,99989.27
2018-07-11T05:03:29.031Z,99992.21
2018-07-11T05:05:56.682Z,99986.92
2018-07-11T05:08:24.955Z,99989.17
2018-07-11T05:10:52.662Z,99989.56
2018-07-11T05:13:20.700Z,99992.61
2018-07-11T05:15:48.398Z,99988.52
2018-07-11T05:18:16.185Z,99993.92
2018-07-11T05:20:45.220Z,99995.12
2018-07-11T05:23:13.017Z,99992.16
2018-07-11T05:25:40.958Z,99990.20
2018-07-11T05:28:08.585Z,99982.77
2018-07-11T05:30:36.275Z,99989.19
2018-07-11T05:33:04.015Z,99988.56
2018-07-11T05:35:32.511Z,99986.94
2018-07-11T05:38:00.237Z,99986.06
2018-07-11T05:40:27.994Z,99986.15
2018-07-11T05:42:55.929Z,99987.52
2018-07-11T05:45:23.681Z,99990.13
2018-07-11T05:47:52.370Z,99981.39
2018-07-11T05:50:20.023Z,99989.00
2018-07-11T05:52:47.641Z,99991.39
2018-07-11T05:55:15.350Z,99986.13
2018-07-11T05:57:43.025Z,99984.52
2018-07-11T06:00:10.702Z,99988.29
2018-07-11T06:02:38.473Z,99981.96
2018-07-11T06:05:06.090Z,99977.89
2018-07-11T06:07:33.717Z,99978.86
2018-07-11T06:10:02.050Z,99980.32
2018-07-11T06:12:29.670Z,99982.44
2018-07-11T06:14:57.373Z,99987.40
2018-07-11T06:17:24.999Z,99987.53
2018-07-11T06:19:52.737Z,99994.84
2018-07-11T06:22:20.373Z,99991.83
2018-07-11T06:24:48.002Z,99992.77
2018-07-11T06:27:15.693Z,99995.52
2018-07-11T06:29:43.309Z,99999.15
2018-07-11T06:32:11.010Z,99995.81
2018-07-11T06:34:38.661Z,100006.03
2018-07-11T06:37:06.312Z,100004.98
2018-07-11T06:39:34.055Z,100007.58
2018-07-11T06:42:01.810Z,100005.39
2018-07-11T06:44:29.543Z,100008.49
2018-07-11T06:46:57.217Z,100011.15
2018-07-11T06:49:24.818Z,100012.28
2018-07-11T06:51:52.522Z,100015.52
2018-07-11T06:54:20.151Z,100014.19
2018-07-11T06:56:47.803Z,100015.22
2018-07-11T06:59:15.425Z,100011.89
2018-07-11T07:01:43.054Z,100020.37
2018-07-11T07:04:10.661Z,100024.13
2018-07-11T07:06:38.446Z,100022.80
2018-07-11T07:09:06.414Z,100017.88
2018-07-11T07:11:34.263Z,100021.52
2018-07-11T07:14:01.925Z,100011.04
2018-07-11T07:16:29.711Z,100010.73
2018-07-11T07:18:57.302Z,100013.09
2018-07-11T07:21:24.933Z,100009.99
2018-07-11T07:23:52.649Z,100004.86
2018-07-11T07:28:41.139Z,100002.63
2018-07-11T07:31:08.807Z,99996.02
2018-07-11T07:33:36.463Z,99997.66
2018-07-11T07:36:04.183Z,99995.89
2018-07-11T07:38:38.099Z,100000.80
2018-07-11T07:41:06.835Z,99999.13
2018-07-11T07:43:35.086Z,100003.37
2018-07-11T07:46:02.849Z,99998.55
2018-07-11T07:48:31.163Z,100002.25
2018-07-11T07:50:58.942Z,99999.20
2018-07-11T07:53:26.701Z,100001.62
2018-07-11T07:55:54.436Z,100003.91
2018-07-11T07:58:22.194Z,100005.20
2018-07-11T08:00:50.035Z,100001.85
2018-07-11T08:03:17.724Z,99994.22
2018-07-11T08:05:45.453Z,99993.63
2018-07-11T08:08:13.142Z,99995.38
2018-07-11T08:10:40.911Z,99997.27
2018-07-11T08:13:08.632Z,99996.70
2018-07-11T08:15:36.365Z,99997.48
2018-07-11T08:18:04.365Z,99994.08
2018-07-11T08:20:32.085Z,99996.77
2018-07-11T08:23:23.312Z,100003.37
2018-07-11T08:26:08.585Z,99997.12
2018-07-11T08:31:53.472Z,99999.52
2018-07-11T08:34:54.017Z,100004.47
2018-07-11T08:37:38.863Z,100000.78
2018-07-11T08:42:27.810Z,100006.44
2018-07-11T08:46:11.821Z,100004.75
2018-07-11T08:53:12.635Z,100009.28
2018-07-11T08:56:17.428Z,100005.22
2018-07-11T09:01:25.475Z,100004.81
2018-07-11T09:06:14.983Z,100009.78
2018-07-11T09:09:09.443Z,100008.91
2018-07-11T09:14:10.499Z,100001.57
2018-07-11T09:16:58.747Z,100014.65
2018-07-11T09:20:15.747Z,100016.19
2018-07-11T09:23:29.192Z,100012.38
2018-07-11T09:25:56.877Z,100021.94
2018-07-11T09:28:24.831Z,100016.02
2018-07-11T09:30:52.575Z,100016.05
2018-07-11T09:33:20.455Z,100007.65
2018-07-11T09:35:48.195Z,100010.08
2018-07-11T09:38:15.994Z,100018.16
2018-07-11T09:40:43.700Z,100015.05
2018-07-11T09:43:11.888Z,100022.50
2018-07-11T09:45:39.677Z,100014.83
2018-07-11T09:48:07.411Z,100024.59
2018-07-11T09:50:35.151Z,100019.47
2018-07-11T09:53:02.890Z,100024.09
2018-07-11T09:55:30.743Z,100016.33
2018-07-11T09:57:58.498Z,100015.88
2018-07-11T10:00:32.011Z,100017.05
2018-07-11T10:03:00.092Z,100015.62
2018-07-11T10:05:28.227Z,100013.28
2018-07-11T10:07:56.003Z,100015.07
2018-07-11T10:10:34.595Z,100004.25
2018-07-11T10:13:02.266Z,100004.53
2018-07-11T10:15:29.919Z,100004.32
2018-07-11T10:17:57.652Z,100009.47
2018-07-11T10:20:25.333Z,100009.34
2018-07-11T10:22:53.097Z,100008.69
2018-07-11T10:25:20.869Z,100009.79
2018-07-11T10:28:04.807Z,100013.08
2018-07-11T10:30:32.530Z,100012.94
2018-07-11T10:33:00.219Z,100020.73
2018-07-11T10:35:27.983Z,100012.11
2018-07-11T10:37:55.713Z,100022.31
2018-07-11T10:40:23.399Z,100021.61
2018-07-11T10:42:51.155Z,100020.36
2018-07-11T10:45:18.867Z,100012.70
2018-07-11T10:48:10.314Z,100014.89
2018-07-11T10:50:38.084Z,100009.02
2018-07-11T10:53:05.838Z,100008.06
2018-07-11T10:55:33.525Z,100011.82
2018-07-11T10:58:01.321Z,100008.02
2018-07-11T11:00:36.660Z,100009.31
2018-07-11T11:02:57.818Z,100013.51
2018-07-11T11:05:25.498Z,100021.41
2018-07-11T11:07:53.303Z,100007.06
2018-07-11T11:10:34.685Z,100002.39
2018-07-11T11:13:02.386Z,100011.20
2018-07-11T11:15:30.073Z,100006.05
2018-07-11T11:17:57.774Z,100013.09
2018-07-11T11:20:25.514Z,100012.77
2018-07-11T11:22:53.162Z,100013.11
2018-07-11T11:25:20.859Z,100012.05
2018-07-11T11:27:49.001Z,100005.95
2018-07-11T11:30:16.770Z,100001.19
2018-07-11T11:32:44.487Z,100000.19
2018-07-11T11:35:12.197Z,100001.11
2018-07-11T11:37:39.863Z,100002.72
2018-07-11T11:40:07.598Z,99998.65
2018-07-11T11:42:35.640Z,99993.23
2018-07-11T11:45:03.006Z,100002.94
2018-07-11T11:47:30.689Z,99995.88
2018-07-11T11:49:58.381Z,99998.65
2018-07-11T11:52:26.126Z,99999.45
2018-07-11T11:54:53.894Z,99999.23
2018-07-11T11:57:21.825Z,99995.16
2018-07-11T11:59:49.504Z,100003.72
2018-07-11T12:02:17.217Z,100003.14
2018-07-11T12:04:44.882Z,100009.22
2018-07-11T12:07:12.620Z,100008.11
2018-07-11T12:09:40.362Z,100003.78
2018-07-11T12:12:08.209Z,99996.61
2018-07-11T12:14:35.866Z,100003.37
2018-07-11T12:17:03.571Z,100010.30
2018-07-11T12:19:31.263Z,100004.03
2018-07-11T12:21:59.094Z,99998.77
2018-07-11T12:24:26.850Z,100001.98
2018-07-11T12:26:54.598Z,100000.19
2018-07-11T12:29:22.226Z,100006.83
2018-07-11T12:31:49.971Z,99996.08
2018-07-11T12:34:17.714Z,100002.98
2018-07-11T12:36:45.414Z,99998.67
2018-07-11T12:39:13.295Z,99994.13
2018-07-11T12:41:40.993Z,99992.38
2018-07-11T12:44:08.662Z,99987.55
2018-07-11T12:46:36.642Z,99992.81
2018-07-11T12:49:05.728Z,99995.75
2018-07-11T12:51:33.796Z,99993.97
2018-07-11T12:54:01.962Z,99994.08
2018-07-11T12:56:29.703Z,99988.03
2018-07-11T12:58:58.058Z,99988.48
2018-07-11T13:01:27.174Z,99980.13
2018-07-11T13:03:56.509Z,99985.66
2018-07-11T13:06:25.869Z,99981.09
2018-07-11T13:08:53.593Z,99984.09
2018-07-11T13:11:22.039Z,99983.73
2018-07-11T13:13:50.438Z,99988.75
2018-07-11T13:16:18.303Z,99993.92
2018-07-11T13:18:46.074Z,99992.95
2018-07-11T13:21:13.745Z,99991.34
2018-07-11T13:23:41.474Z,99986.51
2018-07-11T13:26:09.371Z,99983.00
2018-07-11T13:28:37.050Z,99988.56
2018-07-11T13:31:04.834Z,99987.59
2018-07-11T13:33:32.823Z,99985.45
2018-07-11T13:36:00.577Z,99991.35
2018-07-11T13:38:28.239Z,99978.72
2018-07-11T13:40:56.010Z,99980.87
2018-07-11T13:43:24.174Z,99981.91
2018-07-11T13:45:51.897Z,99981.61
2018-07-11T13:48:19.601Z,99978.31
2018-07-11T13:50:47.373Z,99979.94
2018-07-11T13:53:15.142Z,99976.39
2018-07-11T13:55:42.974Z,99972.23
2018-07-11T13:58:10.997Z,99973.08
2018-07-11T14:00:38.849Z,99972.02
2018-07-11T14:03:06.550Z,99973.09
2018-07-11T14:05:34.302Z,99968.77
2018-07-11T14:08:01.995Z,99969.34
2018-07-11T14:10:29.698Z,99968.27
2018-07-11T14:12:57.387Z,99968.27
2018-07-11T14:15:25.106Z,99965.04
2018-07-11T14:17:52.870Z,99962.04
2018-07-11T14:20:20.679Z,99962.27
2018-07-11T14:22:48.335Z,99966.00
2018-07-11T14:25:17.306Z,99965.73
2018-07-11T14:27:47.301Z,99972.55
2018-07-11T14:30:14.995Z,99969.08
2018-07-11T14:32:55.055Z,99965.30
2018-07-11T14:35:22.858Z,99969.55
2018-07-11T14:37:50.564Z,99962.83
2018-07-11T14:40:18.343Z,99966.52
2018-07-11T14:42:46.287Z,99969.54
2018-07-11T14:45:14.440Z,99974.26
2018-07-11T14:47:47.823Z,99970.77
2018-07-11T14:50:15.594Z,99971.16
2018-07-11T14:52:43.379Z,99972.77
2018-07-11T14:55:11.086Z,99963.89
2018-07-11T14:57:38.722Z,99965.28
2018-07-11T15:00:06.510Z,99965.31
2018-07-11T15:02:34.239Z,99961.02
2018-07-11T15:05:04.135Z,99961.28
2018-07-11T15:07:34.896Z,99959.86
2018-07-11T15:10:03.060Z,99955.05
2018-07-11T15:12:30.783Z,99950.73
2018-07-11T15:14:58.567Z,99952.06
2018-07-11T15:17:27.338Z,99949.31
2018-07-11T15:19:55.214Z,99950.53
2018-07-11T15:22:22.997Z,99953.48
2018-07-11T15:24:50.663Z,99961.84
2018-07-11T15:27:18.375Z,99952.45
2018-07-11T15:29:46.090Z,99954.34
2018-07-11T15:32:13.804Z,99949.21
2018-07-11T15:34:41.926Z,99960.72
2018-07-11T15:37:09.655Z,99957.71
2018-07-11T15:39:38.054Z,99958.00
2018-07-11T15:42:05.799Z,99958.74
2018-07-11T15:44:33.623Z,99961.38
2018-07-11T15:47:01.554Z,99958.21
2018-07-11T15:49:30.067Z,99957.14
2018-07-11T15:51:57.753Z,99954.56
2018-07-11T15:54:25.431Z,99950.28
2018-07-11T15:56:53.306Z,99961.20
2018-07-11T15:59:25.848Z,99959.25
2018-07-11T16:01:54.498Z,99956.37
2018-07-11T16:04:29.405Z,99956.95
2018-07-11T16:07:01.284Z,99950.44
2018-07-11T16:09:29.282Z,99954.94
2018-07-11T16:11:57.031Z,99951.28
2018-07-11T16:14:24.646Z,99961.98
2018-07-11T16:16:52.303Z,99961.36
2018-07-11T16:19:20.007Z,99961.20
2018-07-11T16:21:47.789Z,99965.55
2018-07-11T16:24:15.850Z,99963.76
2018-07-11T16:26:43.547Z,99957.41
2018-07-11T16:29:11.287Z,99959.28
2018-07-11T16:31:39.032Z,99958.50
2018-07-11T16:34:06.670Z,99965.34
2018-07-11T16:36:34.422Z,99967.92
2018-07-11T16:39:02.223Z,99969.38
2018-07-11T16:41:30.120Z,99970.77
2018-07-11T16:43:57.770Z,99971.67
2018-07-11T16:46:25.451Z,99970.23
2018-07-11T16:48:53.260Z,99968.85
2018-07-11T16:51:21.011Z,99968.63
2018-07-11T16:53:48.709Z,99968.38
2018-07-11T16:56:16.509Z,99968.04
2018-07-11T16:58:50.696Z,99975.02
2018-07-11T17:01:20.346Z,99985.70
2018-07-11T17:03:48.034Z,99976.06
2018-07-11T17:06:15.826Z,99974.68
2018-07-11T17:08:49.310Z,99983.19
2018-07-11T17:11:21.783Z,99979.93
2018-07-11T17:13:54.111Z,99979.12
2018-07-11T17:16:45.382Z,99977.52
2018-07-11T17:19:25.344Z,99977.62
2018-07-11T17:21:53.090Z,99977.56
2018-07-11T17:24:21.516Z,99974.37
2018-07-11T17:26:53.336Z,99979.93
2018-07-11T17:29:23.478Z,99977.78
2018-07-11T17:31:53.931Z,99979.13
2018-07-11T17:34:22.402Z,99975.06
2018-07-11T17:36:56.468Z,99978.45
2018-07-11T17:39:24.763Z,99982.94
2018-07-11T17:41:52.774Z,99982.31
2018-07-11T17:44:20.971Z,99983.33
2018-07-11T17:46:48.753Z,99980.70
2018-07-11T17:49:26.382Z,99984.01
2018-07-11T17:52:01.085Z,99982.41
2018-07-11T17:55:06.339Z,99987.55
2018-07-11T17:58:09.782Z,99985.84
2018-07-11T18:00:56.297Z,99986.00
2018-07-11T18:04:06.424Z,99986.32
2018-07-11T18:06:39.292Z,99985.45
2018-07-11T18:09:11.881Z,99994.48
2018-07-11T18:11:56.817Z,99996.20
2018-07-11T18:14:47.852Z,99991.39
2018-07-11T18:17:33.626Z,99993.24
2018-07-11T18:22:18.554Z,99996.06
2018-07-11T18:25:00.473Z,99996.95
2018-07-11T18:27:49.038Z,100004.28
2018-07-11T18:32:34.179Z,100001.75
2018-07-11T18:36:23.633Z,99995.41
2018-07-11T18:39:08.975Z,100000.39
2018-07-11T18:41:51.118Z,99998.98
2018-07-11T18:45:11.214Z,100001.54
2018-07-11T18:47:57.555Z,100000.29
2018-07-11T18:51:13.847Z,99999.18
2018-07-11T18:54:00.439Z,100003.34
2018-07-11T18:56:48.148Z,100005.12
2018-07-11T19:00:32.599Z,100009.93
2018-07-11T19:03:36.982Z,100012.38
2018-07-11T19:06:24.215Z,100011.80
2018-07-11T19:09:22.842Z,100015.24
2018-07-11T19:11:57.573Z,100013.78
2018-07-11T19:14:41.715Z,100018.48
2018-07-11T19:17:21.806Z,100020.18
2018-07-11T19:20:35.958Z,100021.94
2018-07-11T19:23:21.559Z,100027.13
2018-07-11T19:25:59.366Z,100026.99
2018-07-11T19:29:02.881Z,100025.66
2018-07-11T19:32:38.529Z,100025.59
2018-07-11T19:35:27.342Z,100025.55
2018-07-11T19:38:02.198Z,100028.36
2018-07-11T19:40:52.262Z,100025.70
2018-07-11T19:43:46.854Z,100028.28
2018-07-11T19:48:28.538Z,100029.22
2018-07-11T19:51:13.105Z,100036.78
2018-07-11T19:53:58.674Z,100039.45
2018-07-11T19:56:37.194Z,100040.37
2018-07-11T19:59:04.875Z,100039.34
2018-07-11T20:01:32.566Z,100041.44
2018-07-11T20:04:00.254Z,100047.00
2018-07-11T20:06:28.106Z,100044.55
2018-07-11T20:08:55.974Z,100044.27
2018-07-11T20:11:23.791Z,100044.63
2018-07-11T20:13:52.825Z,100045.05
2018-07-11T20:16:21.195Z,100043.16
2018-07-11T20:18:48.841Z,100041.60
2018-07-11T20:21:16.617Z,100045.85
2018-07-11T20:23:44.499Z,100039.41
2018-07-11T20:26:12.503Z,100048.58
2018-07-11T20:28:40.283Z,100054.50
2018-07-11T20:31:08.003Z,100054.27
2018-07-11T20:33:35.673Z,100061.15
2018-07-11T20:36:03.807Z,100060.72
2018-07-11T20:38:31.491Z,100060.22
2018-07-11T20:40:59.177Z,100064.05
2018-07-11T20:43:26.890Z,100065.70
2018-07-11T20:45:54.542Z,100068.63
2018-07-11T20:48:22.324Z,100076.16
2018-07-11T20:50:49.923Z,100075.20
2018-07-11T20:53:17.665Z,100074.97
2018-07-11T20:55:45.276Z,100080.39
2018-07-11T20:58:24.697Z,100080.20
2018-07-11T21:01:10.000Z,100077.72
2018-07-11T21:03:55.685Z,100082.00
2018-07-11T21:06:39.798Z,100079.16
2018-07-11T21:09:22.073Z,100075.98
2018-07-11T21:16:15.179Z,100080.33
2018-07-11T21:18:58.004Z,100089.20
2018-07-11T21:21:25.861Z,100089.88
2018-07-11T21:23:53.610Z,100088.64
2018-07-11T21:26:21.454Z,100087.91
2018-07-11T21:28:49.247Z,100087.30
2018-07-11T21:31:16.869Z,100083.58
2018-07-11T21:33:45.022Z,100082.70
2018-07-11T21:36:12.831Z,100082.81
2018-07-11T21:38:40.493Z,100082.92
2018-07-11T21:41:08.266Z,100084.48
2018-07-11T21:43:35.921Z,100081.72
2018-07-11T21:46:03.701Z,100088.72
2018-07-11T21:48:31.366Z,100085.86
2018-07-11T21:50:59.017Z,100087.69
2018-07-11T21:53:26.742Z,100082.34
2018-07-11T21:55:54.512Z,100089.30
2018-07-11T21:58:22.109Z,100091.08
2018-07-11T22:00:49.737Z,100090.74
2018-07-11T22:03:17.338Z,100097.53
2018-07-11T22:05:45.012Z,100092.25
2018-07-11T22:08:12.602Z,100089.90
2018-07-11T22:10:40.350Z,100088.06
2018-07-11T22:13:08.853Z,100092.34
2018-07-11T22:15:36.602Z,100087.86
2018-07-11T22:18:21.678Z,100088.88
2018-07-11T22:20:47.937Z,100091.33
2018-07-11T22:23:14.319Z,100086.85
2018-07-11T22:25:40.622Z,100091.31
2018-07-11T22:28:06.890Z,100083.08
2018-07-11T22:30:33.194Z,100082.05
2018-07-11T22:32:59.986Z,100080.01
2018-07-11T22:35:26.842Z,100082.86
2018-07-11T22:37:53.205Z,100082.06
2018-07-11T22:40:19.470Z,100080.13
2018-07-11T22:42:45.874Z,100079.92
2018-07-11T22:45:12.253Z,100077.72
2018-07-11T22:47:38.655Z,100075.25
2018-07-11T22:50:04.923Z,100079.44
2018-07-11T22:52:31.987Z,100079.65
2018-07-11T22:54:58.226Z,100086.34
2018-07-11T22:57:24.581Z,100083.82
2018-07-11T22:59:51.142Z,100085.34
2018-07-11T23:02:17.766Z,100086.98
2018-07-11T23:04:44.040Z,100091.84
2018-07-11T23:07:10.399Z,100089.41
2018-07-11T23:09:37.221Z,100093.02
2018-07-11T23:12:04.422Z,100088.58
2018-07-11T23:14:31.889Z,100090.53
2018-07-11T23:16:58.270Z,100092.72
2018-07-11T23:19:24.670Z,100085.38
2018-07-11T23:21:50.996Z,100088.19
2018-07-11T23:24:17.346Z,100079.66
2018-07-11T23:26:43.778Z,100082.91
2018-07-11T23:29:10.307Z,100080.38
2018-07-11T23:31:36.596Z,100077.94
2018-07-11T23:34:03.002Z,100067.50
2018-07-11T23:36:29.590Z,100071.36
2018-07-11T23:38:55.942Z,100079.28
2018-07-11T23:41:22.216Z,100076.03
2018-07-11T23:43:48.562Z,100072.84
2018-07-11T23:46:14.849Z,100075.52
2018-07-11T23:48:41.224Z,100081.56
2018-07-11T23:51:07.502Z,100073.16
2018-07-11T23:53:33.775Z,100070.99
2018-07-11T23:56:00.589Z,100081.44
2018-07-11T23:58:27.516Z,100077.99
